Terminal Aerodrome Forecast
Issued by NWS

Home | Current Version | Previous Version | Text Only | Print | Product List | Glossary On
Versions: 1 2 3 4 5 6 7 8 9 10 11 12 13 14
000
FTUS45 KTFX 312300 RRA
TAFGTF
TAF
KGTF 312342Z 0100/0124 32008G15KT P6SM SCT040 BKN080
     FM010200 28007KT P6SM SCT090 BKN150
     FM010600 20005KT P6SM SCT150
     FM012100 08007KT P6SM SCT100=

USA.gov is the U.S. government's official web portal to all federal, state and local government web resources and services.